Crown II — 9HA3829 — position and weather

sailwx.info

Track history (hours):
 
Tides and Currents Weather Stations Pressure Air Temp Water Temp Dewpoint Dewpoint Depression Visibility Wind Speed Wind Dir Waves Ship Positions

Crown II

Last reported at 2017-Dec-11 11:54 UTC. Time now 2017-Dec-17 10:03 UTC.
Position N 19°12' W 096°02'.

Length 183 m; draft 8.5 m.

Type: Tanker. MMSI: 256123000.

Date/timePositionNaut miles runAvg speedWind from/ knotsBaromVisibWave heightAir tempDewpointWater temp
2017-Dec-11 11:54N 19°12' W 096°02'4 9.8
2017-Dec-11 11:30N 19°12' W 096°06'2 4.1
2017-Dec-11 10:56N 19°13' W 096°08'0 0.0
2017-Dec-11 10:26N 19°13' W 096°08'0 0.0
2017-Dec-11 09:56N 19°13' W 096°08'0 0.0
2017-Dec-11 09:26N 19°13' W 096°08'0 0.0
2017-Dec-11 08:56N 19°13' W 096°08'0 0.0
2017-Dec-11 08:26N 19°13' W 096°08'0 0.0
2017-Dec-11 07:56N 19°13' W 096°08'0 0.0
2017-Dec-11 07:26N 19°13' W 096°08'0 0.0
2017-Dec-11 06:56N 19°13' W 096°08'0 0.0
2017-Dec-11 06:14N 19°13' W 096°08'0 0.0
2017-Dec-11 05:50N 19°13' W 096°08'0 0.0
2017-Dec-11 05:27N 19°13' W 096°08'0 0.0
2017-Dec-11 04:56N 19°13' W 096°08'0 0.0
2017-Dec-11 04:26N 19°13' W 096°08'0 0.0
2017-Dec-11 03:56N 19°13' W 096°08'0 0.0
2017-Dec-11 03:26N 19°13' W 096°08'0 0.0
2017-Dec-11 02:56N 19°13' W 096°08'0 0.0
2017-Dec-11 02:26N 19°13' W 096°08'0 0.0
2017-Dec-11 01:56N 19°13' W 096°08'0 0.0
2017-Dec-11 01:26N 19°13' W 096°08'0 0.0
2017-Dec-11 00:56N 19°13' W 096°08'0 0.0
2017-Dec-11 00:26N 19°13' W 096°08'0 0.0
2017-Dec-10 23:50N 19°13' W 096°08'0 0.0
2017-Dec-10 23:26N 19°13' W 096°08'0 0.0
2017-Dec-10 22:56N 19°13' W 096°08'0 0.0
2017-Dec-10 22:29N 19°13' W 096°08'0 0.0
2017-Dec-10 21:56N 19°13' W 096°08'0 0.0
2017-Dec-10 21:20N 19°13' W 096°08'0 0.0
2017-Dec-10 20:56N 19°13' W 096°08'0 0.0
2017-Dec-10 20:26N 19°13' W 096°08'0 0.0
2017-Dec-10 19:56N 19°13' W 096°08'0 0.0
2017-Dec-10 19:26N 19°13' W 096°08'0 0.0
2017-Dec-10 18:56N 19°13' W 096°08'0 0.0
2017-Dec-10 18:26N 19°13' W 096°08'0 0.0
2017-Dec-10 17:50N 19°13' W 096°08'0 0.0
2017-Dec-10 17:26N 19°13' W 096°08'0 0.0
2017-Dec-10 16:44N 19°13' W 096°08'0 0.0
2017-Dec-10 16:26N 19°13' W 096°08'0 0.0
2017-Dec-10 15:53N 19°13' W 096°08'0 0.0
2017-Dec-10 15:26N 19°13' W 096°08'0 0.0
2017-Dec-10 14:56N 19°13' W 096°08'0 0.0
2017-Dec-10 14:26N 19°13' W 096°08'0 0.0
2017-Dec-10 13:50N 19°13' W 096°08'0 0.0
2017-Dec-10 13:08N 19°13' W 096°08'0 0.0
2017-Dec-10 12:50N 19°13' W 096°08'0 0.0
2017-Dec-10 12:26N 19°13' W 096°08'0 0.0
2017-Dec-10 11:56N 19°13' W 096°08'0 0.0
2017-Dec-10 11:26N 19°13' W 096°08'0 0.0
2017-Dec-10 06:20N 19°13' W 096°08'0 0.0
2017-Dec-10 05:56N 19°13' W 096°08'0 0.0
2017-Dec-10 05:08N 19°13' W 096°08'0 0.0
2017-Dec-10 04:50N 19°13' W 096°08'0 0.0
2017-Dec-10 04:26N 19°13' W 096°08'0 0.0
2017-Dec-10 03:56N 19°13' W 096°08'0 0.0
2017-Dec-10 03:20N 19°13' W 096°08'0 0.0
2017-Dec-10 02:56N 19°13' W 096°08'0 0.0
2017-Dec-10 02:26N 19°13' W 096°08'0 0.0
2017-Dec-10 01:50N 19°13' W 096°08'0 0.0
2017-Dec-10 01:08N 19°13' W 096°08'0 0.0
2017-Dec-10 00:56N 19°13' W 096°08'0 0.0
2017-Dec-10 00:26N 19°13' W 096°08'0 0.0
2017-Dec-09 23:56N 19°13' W 096°08'0 0.0
2017-Dec-09 23:26N 19°13' W 096°08'0 0.0
2017-Dec-09 22:50N 19°13' W 096°08'0 0.0
2017-Dec-09 22:26N 19°13' W 096°08'0 0.0
2017-Dec-09 21:44N 19°13' W 096°08'0 0.0
2017-Dec-09 21:26N 19°13' W 096°08'0 0.0
2017-Dec-09 20:56N 19°13' W 096°08'0 0.0
2017-Dec-09 20:14N 19°13' W 096°08'0 0.0
2017-Dec-09 19:56N 19°13' W 096°08'0 0.0
2017-Dec-09 19:26N 19°13' W 096°08'0 0.2
2017-Dec-09 19:00N 19°13' W 096°08'3 5.7
2017-Dec-09 18:30N 19°12' W 096°05'2 3.7
2017-Dec-09 17:51N 19°12' W 096°03'  
2017-Dec-04 08:37N 29°34' W 093°44'2 0.1
2017-Dec-03 13:57N 29°34' W 093°42'0 0.0
2017-Dec-03 13:09N 29°34' W 093°42'0 0.0
2017-Dec-03 12:51N 29°34' W 093°42'0 0.0
2017-Dec-03 12:30N 29°34' W 093°42'0 0.0
2017-Dec-03 11:18N 29°34' W 093°42'0 0.0
2017-Dec-03 08:48N 29°34' W 093°42'0 0.0
2017-Dec-03 08:15N 29°34' W 093°42'0 0.0
2017-Dec-03 08:00N 29°34' W 093°42'0 0.0
2017-Dec-03 07:30N 29°34' W 093°42'0 0.0
2017-Dec-03 07:00N 29°34' W 093°42'0 0.0
2017-Dec-02 15:27N 29°34' W 093°42'  
Track history (hours):
 
Tides and Currents Weather Stations Pressure Air Temp Water Temp Dewpoint Dewpoint Depression Visibility Wind Speed Wind Dir Waves Ship Positions

Crown II

Last reported at 2017-Dec-11 11:54 UTC. Time now 2017-Dec-17 10:03 UTC.
Position N 19°12' W 096°02'.

Length 183 m; draft 8.5 m.

Type: Tanker. MMSI: 256123000.

Date/timePositionNaut miles runAvg speedWind from/ knotsBaromVisibWave heightAir tempDewpointWater temp
2017-Dec-11 11:54N 19°12' W 096°02'4 9.8
2017-Dec-11 11:30N 19°12' W 096°06'2 4.1
2017-Dec-11 10:56N 19°13' W 096°08'0 0.0
2017-Dec-11 10:26N 19°13' W 096°08'0 0.0
2017-Dec-11 09:56N 19°13' W 096°08'0 0.0
2017-Dec-11 09:26N 19°13' W 096°08'0 0.0
2017-Dec-11 08:56N 19°13' W 096°08'0 0.0
2017-Dec-11 08:26N 19°13' W 096°08'0 0.0
2017-Dec-11 07:56N 19°13' W 096°08'0 0.0
2017-Dec-11 07:26N 19°13' W 096°08'0 0.0
2017-Dec-11 06:56N 19°13' W 096°08'0 0.0
2017-Dec-11 06:14N 19°13' W 096°08'0 0.0
2017-Dec-11 05:50N 19°13' W 096°08'0 0.0
2017-Dec-11 05:27N 19°13' W 096°08'0 0.0
2017-Dec-11 04:56N 19°13' W 096°08'0 0.0
2017-Dec-11 04:26N 19°13' W 096°08'0 0.0
2017-Dec-11 03:56N 19°13' W 096°08'0 0.0
2017-Dec-11 03:26N 19°13' W 096°08'0 0.0
2017-Dec-11 02:56N 19°13' W 096°08'0 0.0
2017-Dec-11 02:26N 19°13' W 096°08'0 0.0
2017-Dec-11 01:56N 19°13' W 096°08'0 0.0
2017-Dec-11 01:26N 19°13' W 096°08'0 0.0
2017-Dec-11 00:56N 19°13' W 096°08'0 0.0
2017-Dec-11 00:26N 19°13' W 096°08'0 0.0
2017-Dec-10 23:50N 19°13' W 096°08'0 0.0
2017-Dec-10 23:26N 19°13' W 096°08'0 0.0
2017-Dec-10 22:56N 19°13' W 096°08'0 0.0
2017-Dec-10 22:29N 19°13' W 096°08'0 0.0
2017-Dec-10 21:56N 19°13' W 096°08'0 0.0
2017-Dec-10 21:20N 19°13' W 096°08'0 0.0
2017-Dec-10 20:56N 19°13' W 096°08'0 0.0
2017-Dec-10 20:26N 19°13' W 096°08'0 0.0
2017-Dec-10 19:56N 19°13' W 096°08'0 0.0
2017-Dec-10 19:26N 19°13' W 096°08'0 0.0
2017-Dec-10 18:56N 19°13' W 096°08'0 0.0
2017-Dec-10 18:26N 19°13' W 096°08'0 0.0
2017-Dec-10 17:50N 19°13' W 096°08'0 0.0
2017-Dec-10 17:26N 19°13' W 096°08'0 0.0
2017-Dec-10 16:44N 19°13' W 096°08'0 0.0
2017-Dec-10 16:26N 19°13' W 096°08'0 0.0
2017-Dec-10 15:53N 19°13' W 096°08'0 0.0
2017-Dec-10 15:26N 19°13' W 096°08'0 0.0
2017-Dec-10 14:56N 19°13' W 096°08'0 0.0
2017-Dec-10 14:26N 19°13' W 096°08'0 0.0
2017-Dec-10 13:50N 19°13' W 096°08'0 0.0
2017-Dec-10 13:08N 19°13' W 096°08'0 0.0
2017-Dec-10 12:50N 19°13' W 096°08'0 0.0
2017-Dec-10 12:26N 19°13' W 096°08'0 0.0
2017-Dec-10 11:56N 19°13' W 096°08'0 0.0
2017-Dec-10 11:26N 19°13' W 096°08'0 0.0
2017-Dec-10 06:20N 19°13' W 096°08'0 0.0
2017-Dec-10 05:56N 19°13' W 096°08'0 0.0
2017-Dec-10 05:08N 19°13' W 096°08'0 0.0
2017-Dec-10 04:50N 19°13' W 096°08'0 0.0
2017-Dec-10 04:26N 19°13' W 096°08'0 0.0
2017-Dec-10 03:56N 19°13' W 096°08'0 0.0
2017-Dec-10 03:20N 19°13' W 096°08'0 0.0
2017-Dec-10 02:56N 19°13' W 096°08'0 0.0
2017-Dec-10 02:26N 19°13' W 096°08'0 0.0
2017-Dec-10 01:50N 19°13' W 096°08'0 0.0
2017-Dec-10 01:08N 19°13' W 096°08'0 0.0
2017-Dec-10 00:56N 19°13' W 096°08'0 0.0
2017-Dec-10 00:26N 19°13' W 096°08'0 0.0
2017-Dec-09 23:56N 19°13' W 096°08'0 0.0
2017-Dec-09 23:26N 19°13' W 096°08'0 0.0
2017-Dec-09 22:50N 19°13' W 096°08'0 0.0
2017-Dec-09 22:26N 19°13' W 096°08'0 0.0
2017-Dec-09 21:44N 19°13' W 096°08'0 0.0
2017-Dec-09 21:26N 19°13' W 096°08'0 0.0
2017-Dec-09 20:56N 19°13' W 096°08'0 0.0
2017-Dec-09 20:14N 19°13' W 096°08'0 0.0
2017-Dec-09 19:56N 19°13' W 096°08'0 0.0
2017-Dec-09 19:26N 19°13' W 096°08'0 0.2
2017-Dec-09 19:00N 19°13' W 096°08'3 5.7
2017-Dec-09 18:30N 19°12' W 096°05'2 3.7
2017-Dec-09 17:51N 19°12' W 096°03'  
2017-Dec-04 08:37N 29°34' W 093°44'2 0.1
2017-Dec-03 13:57N 29°34' W 093°42'0 0.0
2017-Dec-03 13:09N 29°34' W 093°42'0 0.0
2017-Dec-03 12:51N 29°34' W 093°42'0 0.0
2017-Dec-03 12:30N 29°34' W 093°42'0 0.0
2017-Dec-03 11:18N 29°34' W 093°42'0 0.0
2017-Dec-03 08:48N 29°34' W 093°42'0 0.0
2017-Dec-03 08:15N 29°34' W 093°42'0 0.0
2017-Dec-03 08:00N 29°34' W 093°42'0 0.0
2017-Dec-03 07:30N 29°34' W 093°42'0 0.0
2017-Dec-03 07:00N 29°34' W 093°42'0 0.0
2017-Dec-02 15:27N 29°34' W 093°42'  

Dump ship's entire track history